Terminal Aerodrome Forecast
Issued by NWS

Home | Current Version | Previous Version | Text Only | Print | Product List | Glossary On
Versions: 1 2 3 4 5 6 7 8 9 10 11 12 13 14 15 16 17
000
FTUS43 KAPX 282320
TAFAPN
TAF
KAPN 282320Z 2900/2924 15004KT P6SM VCSH SCT008 BKN035
     FM290200 00000KT P6SM BKN035
     FM290500 00000KT 4SM BR SCT020
     FM291200 24005KT P6SM SCT250
     FM291700 24011G20KT P6SM VCSH BKN050=

USA.gov is the U.S. government's official web portal to all federal, state and local government web resources and services.